sensor_id;sensor_type;location;lat;lon;timestamp;temperature;humidity
14985;DHT22;7588;62.368;25.902;2022-10-16T00:01:21;10.30;99.90
14985;DHT22;7588;62.368;25.902;2022-10-16T00:03:48;10.30;99.90
14985;DHT22;7588;62.368;25.902;2022-10-16T00:06:15;10.40;99.90
14985;DHT22;7588;62.368;25.902;2022-10-16T00:08:41;10.40;99.90
14985;DHT22;7588;62.368;25.902;2022-10-16T00:11:10;10.30;99.90
14985;DHT22;7588;62.368;25.902;2022-10-16T00:13:38;10.40;99.90
14985;DHT22;7588;62.368;25.902;2022-10-16T00:16:04;10.40;99.90
14985;DHT22;7588;62.368;25.902;2022-10-16T00:18:30;10.40;99.90
14985;DHT22;7588;62.368;25.902;2022-10-16T00:23:33;10.40;99.90
14985;DHT22;7588;62.368;25.902;2022-10-16T00:26:02;10.40;99.90
14985;DHT22;7588;62.368;25.902;2022-10-16T00:28:28;10.40;99.90
14985;DHT22;7588;62.368;25.902;2022-10-16T00:30:55;10.40;99.90
14985;DHT22;7588;62.368;25.902;2022-10-16T00:33:20;10.40;99.90
14985;DHT22;7588;62.368;25.902;2022-10-16T00:35:46;10.40;99.90
14985;DHT22;7588;62.368;25.902;2022-10-16T00:38:12;10.40;99.90
14985;DHT22;7588;62.368;25.902;2022-10-16T00:40:39;10.40;99.90
14985;DHT22;7588;62.368;25.902;2022-10-16T00:43:12;10.40;99.90
14985;DHT22;7588;62.368;25.902;2022-10-16T00:45:40;10.40;99.90
14985;DHT22;7588;62.368;25.902;2022-10-16T00:48:09;10.40;99.90
14985;DHT22;7588;62.368;25.902;2022-10-16T00:50:36;10.40;99.90
14985;DHT22;7588;62.368;25.902;2022-10-16T00:53:03;10.40;99.90
14985;DHT22;7588;62.368;25.902;2022-10-16T00:55:29;10.40;99.90
14985;DHT22;7588;62.368;25.902;2022-10-16T00:57:56;10.40;99.90
14985;DHT22;7588;62.368;25.902;2022-10-16T01:00:25;10.40;99.90
14985;DHT22;7588;62.368;25.902;2022-10-16T01:03:02;10.40;99.90
14985;DHT22;7588;62.368;25.902;2022-10-16T01:05:41;10.40;99.90
14985;DHT22;7588;62.368;25.902;2022-10-16T01:08:17;10.40;99.90
14985;DHT22;7588;62.368;25.902;2022-10-16T01:13:17;10.40;99.90
14985;DHT22;7588;62.368;25.902;2022-10-16T01:18:38;10.40;99.90
14985;DHT22;7588;62.368;25.902;2022-10-16T01:21:11;10.40;99.90
14985;DHT22;7588;62.368;25.902;2022-10-16T01:28:51;10.40;99.90
14985;DHT22;7588;62.368;25.902;2022-10-16T01:31:21;10.40;99.90
14985;DHT22;7588;62.368;25.902;2022-10-16T01:33:54;10.50;99.90
14985;DHT22;7588;62.368;25.902;2022-10-16T01:36:25;10.50;99.90
14985;DHT22;7588;62.368;25.902;2022-10-16T01:38:54;10.50;99.90
14985;DHT22;7588;62.368;25.902;2022-10-16T01:41:33;10.50;99.90
14985;DHT22;7588;62.368;25.902;2022-10-16T01:44:39;10.50;99.90
14985;DHT22;7588;62.368;25.902;2022-10-16T01:46:59;10.50;99.90
14985;DHT22;7588;62.368;25.902;2022-10-16T01:49:29;10.50;99.90
14985;DHT22;7588;62.368;25.902;2022-10-16T01:51:59;10.50;99.90
14985;DHT22;7588;62.368;25.902;2022-10-16T01:54:28;10.50;99.90
14985;DHT22;7588;62.368;25.902;2022-10-16T01:56:56;10.50;99.90
14985;DHT22;7588;62.368;25.902;2022-10-16T01:59:25;10.50;99.90
14985;DHT22;7588;62.368;25.902;2022-10-16T02:02:00;10.50;99.90
14985;DHT22;7588;62.368;25.902;2022-10-16T02:04:39;10.50;99.90
14985;DHT22;7588;62.368;25.902;2022-10-16T02:07:06;10.50;99.90
14985;DHT22;7588;62.368;25.902;2022-10-16T02:09:35;10.50;99.90
14985;DHT22;7588;62.368;25.902;2022-10-16T02:12:07;10.50;99.90
14985;DHT22;7588;62.368;25.902;2022-10-16T02:14:34;10.40;99.90
14985;DHT22;7588;62.368;25.902;2022-10-16T02:17:14;10.50;99.90
14985;DHT22;7588;62.368;25.902;2022-10-16T02:19:41;10.50;99.90
14985;DHT22;7588;62.368;25.902;2022-10-16T02:22:11;10.40;99.90
14985;DHT22;7588;62.368;25.902;2022-10-16T02:27:38;10.40;99.90
14985;DHT22;7588;62.368;25.902;2022-10-16T02:30:23;10.40;99.90
14985;DHT22;7588;62.368;25.902;2022-10-16T02:32:52;10.40;99.90
14985;DHT22;7588;62.368;25.902;2022-10-16T02:35:20;10.40;99.90
14985;DHT22;7588;62.368;25.902;2022-10-16T02:37:48;10.40;99.90
14985;DHT22;7588;62.368;25.902;2022-10-16T02:40:15;10.40;99.90
14985;DHT22;7588;62.368;25.902;2022-10-16T02:42:41;10.40;99.90
14985;DHT22;7588;62.368;25.902;2022-10-16T02:45:09;10.40;99.90
14985;DHT22;7588;62.368;25.902;2022-10-16T02:47:35;10.40;99.90
14985;DHT22;7588;62.368;25.902;2022-10-16T02:50:01;10.40;99.90
14985;DHT22;7588;62.368;25.902;2022-10-16T02:52:26;10.40;99.90
14985;DHT22;7588;62.368;25.902;2022-10-16T02:54:52;10.40;99.90
14985;DHT22;7588;62.368;25.902;2022-10-16T02:57:18;10.40;99.90
14985;DHT22;7588;62.368;25.902;2022-10-16T02:59:44;10.30;99.90
14985;DHT22;7588;62.368;25.902;2022-10-16T03:02:10;10.30;99.90
14985;DHT22;7588;62.368;25.902;2022-10-16T03:04:37;10.30;99.90
14985;DHT22;7588;62.368;25.902;2022-10-16T03:07:03;10.30;99.90
14985;DHT22;7588;62.368;25.902;2022-10-16T03:09:29;10.30;99.90
14985;DHT22;7588;62.368;25.902;2022-10-16T03:11:55;10.30;99.90
14985;DHT22;7588;62.368;25.902;2022-10-16T03:14:21;10.30;99.90
14985;DHT22;7588;62.368;25.902;2022-10-16T03:16:47;10.30;99.90
14985;DHT22;7588;62.368;25.902;2022-10-16T03:19:12;10.30;99.90
14985;DHT22;7588;62.368;25.902;2022-10-16T03:21:38;10.30;99.90
14985;DHT22;7588;62.368;25.902;2022-10-16T03:24:04;10.20;99.90
14985;DHT22;7588;62.368;25.902;2022-10-16T03:26:30;10.20;99.90
14985;DHT22;7588;62.368;25.902;2022-10-16T03:28:56;10.20;99.90
14985;DHT22;7588;62.368;25.902;2022-10-16T03:31:21;10.20;99.90
14985;DHT22;7588;62.368;25.902;2022-10-16T03:33:47;10.20;99.90
14985;DHT22;7588;62.368;25.902;2022-10-16T03:36:13;10.20;99.90
14985;DHT22;7588;62.368;25.902;2022-10-16T03:38:39;10.20;99.90
14985;DHT22;7588;62.368;25.902;2022-10-16T03:41:05;10.20;99.90
14985;DHT22;7588;62.368;25.902;2022-10-16T03:43:33;10.10;99.90
14985;DHT22;7588;62.368;25.902;2022-10-16T03:45:58;10.20;99.90
14985;DHT22;7588;62.368;25.902;2022-10-16T03:48:24;10.20;99.90
14985;DHT22;7588;62.368;25.902;2022-10-16T03:50:50;10.20;99.90
14985;DHT22;7588;62.368;25.902;2022-10-16T03:53:17;10.20;99.90
14985;DHT22;7588;62.368;25.902;2022-10-16T03:55:43;10.20;99.90
14985;DHT22;7588;62.368;25.902;2022-10-16T03:58:09;10.10;99.90
14985;DHT22;7588;62.368;25.902;2022-10-16T04:00:35;10.10;99.90
14985;DHT22;7588;62.368;25.902;2022-10-16T04:03:01;10.20;99.90
14985;DHT22;7588;62.368;25.902;2022-10-16T04:05:27;10.20;99.90
14985;DHT22;7588;62.368;25.902;2022-10-16T04:07:52;10.20;99.90
14985;DHT22;7588;62.368;25.902;2022-10-16T04:10:18;10.10;99.90
14985;DHT22;7588;62.368;25.902;2022-10-16T04:12:44;10.10;99.90
14985;DHT22;7588;62.368;25.902;2022-10-16T04:15:10;10.20;99.90
14985;DHT22;7588;62.368;25.902;2022-10-16T04:17:36;10.20;99.90
14985;DHT22;7588;62.368;25.902;2022-10-16T04:20:02;10.20;99.90
14985;DHT22;7588;62.368;25.902;2022-10-16T04:22:28;10.20;99.90
14985;DHT22;7588;62.368;25.902;2022-10-16T04:24:54;10.20;99.90
14985;DHT22;7588;62.368;25.902;2022-10-16T04:27:19;10.20;99.90
14985;DHT22;7588;62.368;25.902;2022-10-16T04:29:45;10.20;99.90
14985;DHT22;7588;62.368;25.902;2022-10-16T04:32:11;10.20;99.90
14985;DHT22;7588;62.368;25.902;2022-10-16T04:34:38;10.20;99.90
14985;DHT22;7588;62.368;25.902;2022-10-16T04:37:04;10.20;99.90
14985;DHT22;7588;62.368;25.902;2022-10-16T04:39:30;10.20;99.90
14985;DHT22;7588;62.368;25.902;2022-10-16T04:41:56;10.20;99.90
14985;DHT22;7588;62.368;25.902;2022-10-16T04:44:22;10.20;99.90
14985;DHT22;7588;62.368;25.902;2022-10-16T04:46:50;10.20;99.90
14985;DHT22;7588;62.368;25.902;2022-10-16T04:49:16;10.20;99.90
14985;DHT22;7588;62.368;25.902;2022-10-16T04:51:42;10.20;99.90
14985;DHT22;7588;62.368;25.902;2022-10-16T04:54:09;10.20;99.90
14985;DHT22;7588;62.368;25.902;2022-10-16T04:56:35;10.20;99.90
14985;DHT22;7588;62.368;25.902;2022-10-16T04:59:08;10.20;99.90
14985;DHT22;7588;62.368;25.902;2022-10-16T05:01:34;10.20;99.90
14985;DHT22;7588;62.368;25.902;2022-10-16T05:04:00;10.20;99.90
14985;DHT22;7588;62.368;25.902;2022-10-16T05:06:26;10.20;99.90
14985;DHT22;7588;62.368;25.902;2022-10-16T05:08:52;10.30;99.90
14985;DHT22;7588;62.368;25.902;2022-10-16T05:11:18;10.20;99.90
14985;DHT22;7588;62.368;25.902;2022-10-16T05:13:44;10.30;99.90
14985;DHT22;7588;62.368;25.902;2022-10-16T05:16:09;10.20;99.90
14985;DHT22;7588;62.368;25.902;2022-10-16T05:18:35;10.30;99.90
14985;DHT22;7588;62.368;25.902;2022-10-16T05:21:01;10.30;99.90
14985;DHT22;7588;62.368;25.902;2022-10-16T05:23:26;10.20;99.90
14985;DHT22;7588;62.368;25.902;2022-10-16T05:25:54;10.20;99.90
14985;DHT22;7588;62.368;25.902;2022-10-16T05:28:21;10.20;99.90
14985;DHT22;7588;62.368;25.902;2022-10-16T05:30:46;10.20;99.90
14985;DHT22;7588;62.368;25.902;2022-10-16T05:33:12;10.20;99.90
14985;DHT22;7588;62.368;25.902;2022-10-16T05:35:38;10.20;99.90
14985;DHT22;7588;62.368;25.902;2022-10-16T05:38:04;10.20;99.90
14985;DHT22;7588;62.368;25.902;2022-10-16T05:40:30;10.20;99.90
14985;DHT22;7588;62.368;25.902;2022-10-16T05:42:56;10.20;99.90
14985;DHT22;7588;62.368;25.902;2022-10-16T05:45:21;10.20;99.90
14985;DHT22;7588;62.368;25.902;2022-10-16T05:47:47;10.20;99.90
14985;DHT22;7588;62.368;25.902;2022-10-16T05:50:13;10.20;99.90
14985;DHT22;7588;62.368;25.902;2022-10-16T05:52:39;10.20;99.90
14985;DHT22;7588;62.368;25.902;2022-10-16T05:55:05;10.20;99.90
14985;DHT22;7588;62.368;25.902;2022-10-16T05:57:31;10.20;99.90
14985;DHT22;7588;62.368;25.902;2022-10-16T05:59:57;10.20;99.90
14985;DHT22;7588;62.368;25.902;2022-10-16T06:02:22;10.20;99.90
14985;DHT22;7588;62.368;25.902;2022-10-16T06:04:48;10.20;99.90
14985;DHT22;7588;62.368;25.902;2022-10-16T06:07:14;10.20;99.90
14985;DHT22;7588;62.368;25.902;2022-10-16T06:09:39;10.20;99.90
14985;DHT22;7588;62.368;25.902;2022-10-16T06:12:05;10.20;99.90
14985;DHT22;7588;62.368;25.902;2022-10-16T06:14:31;10.20;99.90
14985;DHT22;7588;62.368;25.902;2022-10-16T06:16:56;10.30;99.90
14985;DHT22;7588;62.368;25.902;2022-10-16T06:19:22;10.20;99.90
14985;DHT22;7588;62.368;25.902;2022-10-16T06:21:48;10.20;99.90
14985;DHT22;7588;62.368;25.902;2022-10-16T06:24:14;10.20;99.90
14985;DHT22;7588;62.368;25.902;2022-10-16T06:26:40;10.30;99.90
14985;DHT22;7588;62.368;25.902;2022-10-16T06:29:05;10.30;99.90
14985;DHT22;7588;62.368;25.902;2022-10-16T06:31:31;10.30;99.90
14985;DHT22;7588;62.368;25.902;2022-10-16T06:33:59;10.30;99.90
14985;DHT22;7588;62.368;25.902;2022-10-16T06:36:25;10.20;99.90
14985;DHT22;7588;62.368;25.902;2022-10-16T06:38:51;10.20;99.90
14985;DHT22;7588;62.368;25.902;2022-10-16T06:41:19;10.30;99.90
14985;DHT22;7588;62.368;25.902;2022-10-16T06:43:46;10.30;99.90
14985;DHT22;7588;62.368;25.902;2022-10-16T06:46:14;10.30;99.90
14985;DHT22;7588;62.368;25.902;2022-10-16T06:48:40;10.30;99.90
14985;DHT22;7588;62.368;25.902;2022-10-16T06:51:17;10.30;99.90
14985;DHT22;7588;62.368;25.902;2022-10-16T06:53:45;10.30;99.90
14985;DHT22;7588;62.368;25.902;2022-10-16T06:56:25;10.30;99.90
14985;DHT22;7588;62.368;25.902;2022-10-16T06:58:52;10.30;99.90
14985;DHT22;7588;62.368;25.902;2022-10-16T07:01:20;10.30;99.90
14985;DHT22;7588;62.368;25.902;2022-10-16T07:03:47;10.40;99.90
14985;DHT22;7588;62.368;25.902;2022-10-16T07:06:15;10.30;99.90
14985;DHT22;7588;62.368;25.902;2022-10-16T07:08:43;10.30;99.90
14985;DHT22;7588;62.368;25.902;2022-10-16T07:11:12;10.30;99.90
14985;DHT22;7588;62.368;25.902;2022-10-16T07:13:40;10.40;99.90
14985;DHT22;7588;62.368;25.902;2022-10-16T07:16:18;10.40;99.90
14985;DHT22;7588;62.368;25.902;2022-10-16T07:18:44;10.40;99.90
14985;DHT22;7588;62.368;25.902;2022-10-16T07:21:13;10.40;99.90
14985;DHT22;7588;62.368;25.902;2022-10-16T07:23:40;10.40;99.90
14985;DHT22;7588;62.368;25.902;2022-10-16T07:26:06;10.40;99.90
14985;DHT22;7588;62.368;25.902;2022-10-16T07:28:33;10.40;99.90
14985;DHT22;7588;62.368;25.902;2022-10-16T07:31:07;10.40;99.90
14985;DHT22;7588;62.368;25.902;2022-10-16T07:33:34;10.40;99.90
14985;DHT22;7588;62.368;25.902;2022-10-16T07:36:00;10.40;99.90
14985;DHT22;7588;62.368;25.902;2022-10-16T07:38:26;10.40;99.90
14985;DHT22;7588;62.368;25.902;2022-10-16T07:41:00;10.40;99.90
14985;DHT22;7588;62.368;25.902;2022-10-16T07:43:26;10.40;99.90
14985;DHT22;7588;62.368;25.902;2022-10-16T07:45:52;10.40;99.90
14985;DHT22;7588;62.368;25.902;2022-10-16T07:48:18;10.40;99.90
14985;DHT22;7588;62.368;25.902;2022-10-16T07:50:45;10.40;99.90
14985;DHT22;7588;62.368;25.902;2022-10-16T07:53:11;10.40;99.90
14985;DHT22;7588;62.368;25.902;2022-10-16T07:55:37;10.40;99.90
14985;DHT22;7588;62.368;25.902;2022-10-16T07:58:03;10.40;99.90
14985;DHT22;7588;62.368;25.902;2022-10-16T08:00:30;10.40;99.90
14985;DHT22;7588;62.368;25.902;2022-10-16T08:02:57;10.40;99.90
14985;DHT22;7588;62.368;25.902;2022-10-16T08:05:29;10.40;99.90
14985;DHT22;7588;62.368;25.902;2022-10-16T08:07:56;10.40;99.90
14985;DHT22;7588;62.368;25.902;2022-10-16T08:10:23;10.40;99.90
14985;DHT22;7588;62.368;25.902;2022-10-16T08:12:50;10.40;99.90
14985;DHT22;7588;62.368;25.902;2022-10-16T08:15:16;10.40;99.90
14985;DHT22;7588;62.368;25.902;2022-10-16T08:17:42;10.40;99.90
14985;DHT22;7588;62.368;25.902;2022-10-16T08:20:09;10.40;99.90
14985;DHT22;7588;62.368;25.902;2022-10-16T08:22:34;10.40;99.90
14985;DHT22;7588;62.368;25.902;2022-10-16T08:25:00;10.40;99.90
14985;DHT22;7588;62.368;25.902;2022-10-16T08:27:33;10.40;99.90
14985;DHT22;7588;62.368;25.902;2022-10-16T08:29:59;10.40;99.90
14985;DHT22;7588;62.368;25.902;2022-10-16T08:32:25;10.40;99.90
14985;DHT22;7588;62.368;25.902;2022-10-16T08:34:51;10.40;99.90
14985;DHT22;7588;62.368;25.902;2022-10-16T08:37:16;10.40;99.90
14985;DHT22;7588;62.368;25.902;2022-10-16T08:39:42;10.40;99.90
14985;DHT22;7588;62.368;25.902;2022-10-16T08:50:29;10.40;99.90
14985;DHT22;7588;62.368;25.902;2022-10-16T08:52:55;10.40;99.90
14985;DHT22;7588;62.368;25.902;2022-10-16T08:58:00;10.40;99.90
14985;DHT22;7588;62.368;25.902;2022-10-16T09:00:26;10.40;99.90
14985;DHT22;7588;62.368;25.902;2022-10-16T09:08:22;10.40;99.90
14985;DHT22;7588;62.368;25.902;2022-10-16T09:11:23;10.40;99.90
14985;DHT22;7588;62.368;25.902;2022-10-16T09:16:56;10.40;99.90
14985;DHT22;7588;62.368;25.902;2022-10-16T09:19:29;10.40;99.90
14985;DHT22;7588;62.368;25.902;2022-10-16T09:21:57;10.40;99.90
14985;DHT22;7588;62.368;25.902;2022-10-16T09:24:26;10.40;99.90
14985;DHT22;7588;62.368;25.902;2022-10-16T09:26:52;10.40;99.90
14985;DHT22;7588;62.368;25.902;2022-10-16T09:29:20;10.40;99.90
14985;DHT22;7588;62.368;25.902;2022-10-16T09:31:46;10.40;99.90
14985;DHT22;7588;62.368;25.902;2022-10-16T09:34:36;10.40;99.90
14985;DHT22;7588;62.368;25.902;2022-10-16T09:37:09;10.40;99.90
14985;DHT22;7588;62.368;25.902;2022-10-16T09:39:51;10.40;99.90
14985;DHT22;7588;62.368;25.902;2022-10-16T09:42:21;10.40;99.90
14985;DHT22;7588;62.368;25.902;2022-10-16T09:44:50;10.40;99.90
14985;DHT22;7588;62.368;25.902;2022-10-16T09:47:20;10.40;99.90
14985;DHT22;7588;62.368;25.902;2022-10-16T09:50:04;10.40;99.90
14985;DHT22;7588;62.368;25.902;2022-10-16T09:52:32;10.40;99.90
14985;DHT22;7588;62.368;25.902;2022-10-16T09:55:01;10.40;99.90
14985;DHT22;7588;62.368;25.902;2022-10-16T09:57:27;10.40;99.90
14985;DHT22;7588;62.368;25.902;2022-10-16T09:59:55;10.40;99.90
14985;DHT22;7588;62.368;25.902;2022-10-16T10:02:35;10.50;99.90
14985;DHT22;7588;62.368;25.902;2022-10-16T10:05:01;10.50;99.90
14985;DHT22;7588;62.368;25.902;2022-10-16T10:07:32;10.50;99.90
14985;DHT22;7588;62.368;25.902;2022-10-16T10:09:59;10.50;99.90
14985;DHT22;7588;62.368;25.902;2022-10-16T10:12:31;10.60;99.90
14985;DHT22;7588;62.368;25.902;2022-10-16T10:15:03;10.50;99.90
14985;DHT22;7588;62.368;25.902;2022-10-16T10:17:30;10.60;99.90
14985;DHT22;7588;62.368;25.902;2022-10-16T10:20:01;10.60;99.90
14985;DHT22;7588;62.368;25.902;2022-10-16T10:22:43;10.60;99.90
14985;DHT22;7588;62.368;25.902;2022-10-16T10:30:29;10.60;99.90
14985;DHT22;7588;62.368;25.902;2022-10-16T10:33:45;10.60;99.90
14985;DHT22;7588;62.368;25.902;2022-10-16T10:39:14;10.60;99.90
14985;DHT22;7588;62.368;25.902;2022-10-16T10:53:24;10.70;99.90
14985;DHT22;7588;62.368;25.902;2022-10-16T11:09:24;10.70;99.90
14985;DHT22;7588;62.368;25.902;2022-10-16T11:12:01;10.70;99.90
14985;DHT22;7588;62.368;25.902;2022-10-16T11:14:35;10.80;99.90
14985;DHT22;7588;62.368;25.902;2022-10-16T11:17:10;10.70;99.90
14985;DHT22;7588;62.368;25.902;2022-10-16T11:19:48;10.80;99.90
14985;DHT22;7588;62.368;25.902;2022-10-16T11:22:41;10.80;99.90
14985;DHT22;7588;62.368;25.902;2022-10-16T11:25:21;10.80;99.90
14985;DHT22;7588;62.368;25.902;2022-10-16T11:30:52;10.90;99.90
14985;DHT22;7588;62.368;25.902;2022-10-16T11:38:52;11.00;99.90
14985;DHT22;7588;62.368;25.902;2022-10-16T11:41:32;11.00;99.90
14985;DHT22;7588;62.368;25.902;2022-10-16T11:46:32;11.10;99.90
14985;DHT22;7588;62.368;25.902;2022-10-16T11:49:08;11.10;99.90
14985;DHT22;7588;62.368;25.902;2022-10-16T11:54:32;11.10;99.90
14985;DHT22;7588;62.368;25.902;2022-10-16T11:57:07;11.20;99.90
14985;DHT22;7588;62.368;25.902;2022-10-16T11:59:45;11.20;99.90
14985;DHT22;7588;62.368;25.902;2022-10-16T12:08:10;11.30;99.90
14985;DHT22;7588;62.368;25.902;2022-10-16T12:10:37;11.30;99.90
14985;DHT22;7588;62.368;25.902;2022-10-16T12:13:05;11.30;99.90
14985;DHT22;7588;62.368;25.902;2022-10-16T12:15:33;11.30;99.90
14985;DHT22;7588;62.368;25.902;2022-10-16T12:17:59;11.30;99.90
14985;DHT22;7588;62.368;25.902;2022-10-16T12:20:31;11.30;99.90
14985;DHT22;7588;62.368;25.902;2022-10-16T12:23:05;11.40;99.90
14985;DHT22;7588;62.368;25.902;2022-10-16T12:28:25;11.40;99.90
14985;DHT22;7588;62.368;25.902;2022-10-16T12:31:03;11.40;99.90
14985;DHT22;7588;62.368;25.902;2022-10-16T12:33:31;11.40;99.90
14985;DHT22;7588;62.368;25.902;2022-10-16T12:36:00;11.40;99.90
14985;DHT22;7588;62.368;25.902;2022-10-16T12:38:38;11.40;99.90
14985;DHT22;7588;62.368;25.902;2022-10-16T12:41:10;11.40;99.90
14985;DHT22;7588;62.368;25.902;2022-10-16T12:43:41;11.40;99.90
14985;DHT22;7588;62.368;25.902;2022-10-16T12:48:34;11.40;99.90
14985;DHT22;7588;62.368;25.902;2022-10-16T12:51:12;11.40;99.90
14985;DHT22;7588;62.368;25.902;2022-10-16T12:53:38;11.40;99.90
14985;DHT22;7588;62.368;25.902;2022-10-16T12:56:21;11.40;99.90
14985;DHT22;7588;62.368;25.902;2022-10-16T12:59:04;11.40;99.90
14985;DHT22;7588;62.368;25.902;2022-10-16T13:01:52;11.50;99.90
14985;DHT22;7588;62.368;25.902;2022-10-16T13:04:47;11.50;99.90
14985;DHT22;7588;62.368;25.902;2022-10-16T13:10:23;11.50;99.90
14985;DHT22;7588;62.368;25.902;2022-10-16T13:18:15;11.60;99.90
14985;DHT22;7588;62.368;25.902;2022-10-16T13:26:13;11.60;99.90
14985;DHT22;7588;62.368;25.902;2022-10-16T13:28:42;11.60;99.90
14985;DHT22;7588;62.368;25.902;2022-10-16T13:31:22;11.60;99.90
14985;DHT22;7588;62.368;25.902;2022-10-16T13:33:55;11.60;99.90
14985;DHT22;7588;62.368;25.902;2022-10-16T13:36:35;11.60;99.90
14985;DHT22;7588;62.368;25.902;2022-10-16T13:39:14;11.60;99.90
14985;DHT22;7588;62.368;25.902;2022-10-16T13:41:42;11.60;99.90
14985;DHT22;7588;62.368;25.902;2022-10-16T13:44:26;11.60;99.90
14985;DHT22;7588;62.368;25.902;2022-10-16T13:46:59;11.60;99.90
14985;DHT22;7588;62.368;25.902;2022-10-16T13:49:26;11.60;99.90
14985;DHT22;7588;62.368;25.902;2022-10-16T13:51:57;11.60;99.90
14985;DHT22;7588;62.368;25.902;2022-10-16T13:54:24;11.60;99.90
14985;DHT22;7588;62.368;25.902;2022-10-16T13:56:50;11.70;99.90
14985;DHT22;7588;62.368;25.902;2022-10-16T13:59:32;11.60;99.90
14985;DHT22;7588;62.368;25.902;2022-10-16T14:01:59;11.70;99.90
14985;DHT22;7588;62.368;25.902;2022-10-16T14:04:28;11.60;99.90
14985;DHT22;7588;62.368;25.902;2022-10-16T14:06:56;11.60;99.90
14985;DHT22;7588;62.368;25.902;2022-10-16T14:09:26;11.60;99.90
14985;DHT22;7588;62.368;25.902;2022-10-16T14:12:07;11.60;99.90
14985;DHT22;7588;62.368;25.902;2022-10-16T14:14:51;11.60;99.90
14985;DHT22;7588;62.368;25.902;2022-10-16T14:17:28;11.60;99.90
14985;DHT22;7588;62.368;25.902;2022-10-16T14:20:00;11.60;99.90
14985;DHT22;7588;62.368;25.902;2022-10-16T14:22:37;11.60;99.90
14985;DHT22;7588;62.368;25.902;2022-10-16T14:28:17;11.60;99.90
14985;DHT22;7588;62.368;25.902;2022-10-16T14:30:52;11.60;99.90
14985;DHT22;7588;62.368;25.902;2022-10-16T14:35:46;11.50;99.90
14985;DHT22;7588;62.368;25.902;2022-10-16T14:38:24;11.40;99.90
14985;DHT22;7588;62.368;25.902;2022-10-16T14:40:51;11.30;99.90
14985;DHT22;7588;62.368;25.902;2022-10-16T14:43:22;11.30;99.90
14985;DHT22;7588;62.368;25.902;2022-10-16T14:45:55;11.30;99.90
14985;DHT22;7588;62.368;25.902;2022-10-16T14:48:22;11.30;99.90
14985;DHT22;7588;62.368;25.902;2022-10-16T14:50:48;11.30;99.90
14985;DHT22;7588;62.368;25.902;2022-10-16T14:53:14;11.20;99.90
14985;DHT22;7588;62.368;25.902;2022-10-16T14:55:41;11.20;99.90
14985;DHT22;7588;62.368;25.902;2022-10-16T14:58:21;11.20;99.90
14985;DHT22;7588;62.368;25.902;2022-10-16T15:00:48;11.20;99.90
14985;DHT22;7588;62.368;25.902;2022-10-16T15:03:14;11.20;99.90
14985;DHT22;7588;62.368;25.902;2022-10-16T15:05:40;11.10;99.90
14985;DHT22;7588;62.368;25.902;2022-10-16T15:08:06;11.20;99.90
14985;DHT22;7588;62.368;25.902;2022-10-16T15:10:38;11.20;99.90
14985;DHT22;7588;62.368;25.902;2022-10-16T15:13:04;11.20;99.90
14985;DHT22;7588;62.368;25.902;2022-10-16T15:15:51;11.10;99.90
14985;DHT22;7588;62.368;25.902;2022-10-16T15:18:17;11.10;99.90
14985;DHT22;7588;62.368;25.902;2022-10-16T15:20:47;11.10;99.90
14985;DHT22;7588;62.368;25.902;2022-10-16T15:23:14;11.20;99.90
14985;DHT22;7588;62.368;25.902;2022-10-16T15:25:49;11.10;99.90
14985;DHT22;7588;62.368;25.902;2022-10-16T15:28:16;11.10;99.90
14985;DHT22;7588;62.368;25.902;2022-10-16T15:30:42;11.10;99.90
14985;DHT22;7588;62.368;25.902;2022-10-16T15:33:15;11.10;99.90
14985;DHT22;7588;62.368;25.902;2022-10-16T15:35:41;11.10;99.90
14985;DHT22;7588;62.368;25.902;2022-10-16T15:38:11;11.10;99.90
14985;DHT22;7588;62.368;25.902;2022-10-16T15:40:38;11.10;99.90
14985;DHT22;7588;62.368;25.902;2022-10-16T15:43:04;11.10;99.90
14985;DHT22;7588;62.368;25.902;2022-10-16T15:45:29;11.10;99.90
14985;DHT22;7588;62.368;25.902;2022-10-16T15:47:55;11.20;99.90
14985;DHT22;7588;62.368;25.902;2022-10-16T15:50:21;11.20;99.90
14985;DHT22;7588;62.368;25.902;2022-10-16T15:52:47;11.20;99.90
14985;DHT22;7588;62.368;25.902;2022-10-16T15:55:14;11.20;99.90
14985;DHT22;7588;62.368;25.902;2022-10-16T15:57:40;11.10;99.90
14985;DHT22;7588;62.368;25.902;2022-10-16T16:00:16;11.20;99.90
14985;DHT22;7588;62.368;25.902;2022-10-16T16:02:44;11.20;99.90
14985;DHT22;7588;62.368;25.902;2022-10-16T16:05:14;11.10;99.90
14985;DHT22;7588;62.368;25.902;2022-10-16T16:07:40;11.20;99.90
14985;DHT22;7588;62.368;25.902;2022-10-16T16:10:08;11.20;99.90
14985;DHT22;7588;62.368;25.902;2022-10-16T16:12:34;11.20;99.90
14985;DHT22;7588;62.368;25.902;2022-10-16T16:15:00;11.10;99.90
14985;DHT22;7588;62.368;25.902;2022-10-16T16:17:26;11.10;99.90
14985;DHT22;7588;62.368;25.902;2022-10-16T16:19:51;11.10;99.90
14985;DHT22;7588;62.368;25.902;2022-10-16T16:22:17;11.10;99.90
14985;DHT22;7588;62.368;25.902;2022-10-16T16:24:43;11.10;99.90
14985;DHT22;7588;62.368;25.902;2022-10-16T16:27:09;11.10;99.90
14985;DHT22;7588;62.368;25.902;2022-10-16T16:29:35;11.10;99.90
14985;DHT22;7588;62.368;25.902;2022-10-16T16:32:01;11.10;99.90
14985;DHT22;7588;62.368;25.902;2022-10-16T16:34:28;11.20;99.90
14985;DHT22;7588;62.368;25.902;2022-10-16T16:36:54;11.20;99.90
14985;DHT22;7588;62.368;25.902;2022-10-16T16:39:21;11.10;99.90
14985;DHT22;7588;62.368;25.902;2022-10-16T16:41:47;11.20;99.90
14985;DHT22;7588;62.368;25.902;2022-10-16T16:44:14;11.20;99.90
14985;DHT22;7588;62.368;25.902;2022-10-16T16:46:41;11.20;99.90
14985;DHT22;7588;62.368;25.902;2022-10-16T16:49:09;11.20;99.90
14985;DHT22;7588;62.368;25.902;2022-10-16T16:51:36;11.20;99.90
14985;DHT22;7588;62.368;25.902;2022-10-16T16:54:01;11.20;99.90
14985;DHT22;7588;62.368;25.902;2022-10-16T16:56:27;11.20;99.90
14985;DHT22;7588;62.368;25.902;2022-10-16T16:58:55;11.20;99.90
14985;DHT22;7588;62.368;25.902;2022-10-16T17:01:23;11.20;99.90
14985;DHT22;7588;62.368;25.902;2022-10-16T17:03:52;11.20;99.90
14985;DHT22;7588;62.368;25.902;2022-10-16T17:06:20;11.30;99.90
14985;DHT22;7588;62.368;25.902;2022-10-16T17:08:46;11.20;99.90
14985;DHT22;7588;62.368;25.902;2022-10-16T17:11:26;11.30;99.90
14985;DHT22;7588;62.368;25.902;2022-10-16T17:13:54;11.30;99.90
14985;DHT22;7588;62.368;25.902;2022-10-16T17:16:22;11.30;99.90
14985;DHT22;7588;62.368;25.902;2022-10-16T17:18:48;11.20;99.90
14985;DHT22;7588;62.368;25.902;2022-10-16T17:21:13;11.30;99.90
14985;DHT22;7588;62.368;25.902;2022-10-16T17:23:39;11.30;99.90
14985;DHT22;7588;62.368;25.902;2022-10-16T17:26:06;11.30;99.90
14985;DHT22;7588;62.368;25.902;2022-10-16T17:28:32;11.30;99.90
14985;DHT22;7588;62.368;25.902;2022-10-16T17:31:09;11.30;99.90
14985;DHT22;7588;62.368;25.902;2022-10-16T17:33:35;11.40;99.90
14985;DHT22;7588;62.368;25.902;2022-10-16T17:36:01;11.40;99.90